sensor_id;sensor_type;location;lat;lon;timestamp;P1;durP1;ratioP1;P2;durP2;ratioP2
18206;SDS011;9229;52.354;20.886;2024-03-23T00:57:23;37.83;;;17.88;;
18206;SDS011;9229;52.354;20.886;2024-03-23T01:02:25;36.58;;;17.65;;
18206;SDS011;9229;52.354;20.886;2024-03-23T01:07:27;39.40;;;18.00;;
18206;SDS011;9229;52.354;20.886;2024-03-23T01:12:30;42.50;;;18.98;;
18206;SDS011;9229;52.354;20.886;2024-03-23T01:17:32;40.17;;;18.70;;
18206;SDS011;9229;52.354;20.886;2024-03-23T01:22:34;44.17;;;19.27;;
18206;SDS011;9229;52.354;20.886;2024-03-23T01:27:38;43.33;;;18.75;;
18206;SDS011;9229;52.354;20.886;2024-03-23T01:32:40;38.95;;;18.45;;
18206;SDS011;9229;52.354;20.886;2024-03-23T01:37:43;46.90;;;21.15;;
18206;SDS011;9229;52.354;20.886;2024-03-23T01:42:56;45.60;;;20.23;;
18206;SDS011;9229;52.354;20.886;2024-03-23T01:47:58;48.83;;;21.33;;
18206;SDS011;9229;52.354;20.886;2024-03-23T01:53:00;50.53;;;20.48;;
18206;SDS011;9229;52.354;20.886;2024-03-23T01:58:06;46.72;;;20.48;;
18206;SDS011;9229;52.354;20.886;2024-03-23T02:03:24;44.10;;;20.63;;
18206;SDS011;9229;52.354;20.886;2024-03-23T02:08:26;42.75;;;20.15;;
18206;SDS011;9229;52.354;20.886;2024-03-23T02:13:29;50.20;;;21.77;;
18206;SDS011;9229;52.354;20.886;2024-03-23T02:18:32;51.00;;;22.13;;
18206;SDS011;9229;52.354;20.886;2024-03-23T02:23:36;57.92;;;23.05;;
18206;SDS011;9229;52.354;20.886;2024-03-23T02:28:38;48.90;;;21.67;;
18206;SDS011;9229;52.354;20.886;2024-03-23T02:33:40;53.97;;;22.27;;
18206;SDS011;9229;52.354;20.886;2024-03-23T02:38:43;53.47;;;22.35;;
18206;SDS011;9229;52.354;20.886;2024-03-23T02:43:45;53.38;;;22.38;;
18206;SDS011;9229;52.354;20.886;2024-03-23T02:48:50;48.85;;;21.83;;
18206;SDS011;9229;52.354;20.886;2024-03-23T02:53:53;50.70;;;23.10;;
18206;SDS011;9229;52.354;20.886;2024-03-23T02:58:55;53.92;;;23.30;;
18206;SDS011;9229;52.354;20.886;2024-03-23T03:03:57;53.70;;;24.20;;
18206;SDS011;9229;52.354;20.886;2024-03-23T03:09:00;52.55;;;23.20;;
18206;SDS011;9229;52.354;20.886;2024-03-23T03:14:03;61.90;;;23.38;;
18206;SDS011;9229;52.354;20.886;2024-03-23T03:19:07;52.03;;;23.20;;
18206;SDS011;9229;52.354;20.886;2024-03-23T03:24:12;62.55;;;23.17;;
18206;SDS011;9229;52.354;20.886;2024-03-23T03:29:13;55.90;;;22.48;;
18206;SDS011;9229;52.354;20.886;2024-03-23T03:34:15;55.28;;;24.52;;
18206;SDS011;9229;52.354;20.886;2024-03-23T03:39:19;60.47;;;23.52;;
18206;SDS011;9229;52.354;20.886;2024-03-23T03:44:22;53.83;;;23.55;;
18206;SDS011;9229;52.354;20.886;2024-03-23T03:49:24;58.45;;;23.42;;
18206;SDS011;9229;52.354;20.886;2024-03-23T03:54:28;53.22;;;22.42;;
18206;SDS011;9229;52.354;20.886;2024-03-23T03:59:30;59.33;;;23.77;;
18206;SDS011;9229;52.354;20.886;2024-03-23T04:04:32;52.88;;;23.20;;
18206;SDS011;9229;52.354;20.886;2024-03-23T04:09:35;54.25;;;23.05;;
18206;SDS011;9229;52.354;20.886;2024-03-23T04:14:37;45.00;;;21.35;;
18206;SDS011;9229;52.354;20.886;2024-03-23T04:19:39;52.53;;;23.30;;
18206;SDS011;9229;52.354;20.886;2024-03-23T04:24:43;48.05;;;22.98;;
18206;SDS011;9229;52.354;20.886;2024-03-23T04:29:46;52.45;;;22.23;;
18206;SDS011;9229;52.354;20.886;2024-03-23T04:34:51;52.95;;;22.27;;
18206;SDS011;9229;52.354;20.886;2024-03-23T04:39:55;50.00;;;23.20;;
18206;SDS011;9229;52.354;20.886;2024-03-23T04:44:57;60.63;;;23.75;;
18206;SDS011;9229;52.354;20.886;2024-03-23T04:49:59;53.47;;;23.63;;
18206;SDS011;9229;52.354;20.886;2024-03-23T04:55:03;57.25;;;23.00;;
18206;SDS011;9229;52.354;20.886;2024-03-23T05:00:06;58.45;;;22.50;;
18206;SDS011;9229;52.354;20.886;2024-03-23T05:05:16;55.53;;;24.85;;
18206;SDS011;9229;52.354;20.886;2024-03-23T05:10:20;59.80;;;25.77;;
18206;SDS011;9229;52.354;20.886;2024-03-23T05:15:22;56.45;;;23.60;;
18206;SDS011;9229;52.354;20.886;2024-03-23T05:20:24;60.45;;;24.83;;
18206;SDS011;9229;52.354;20.886;2024-03-23T05:25:27;66.00;;;25.73;;
18206;SDS011;9229;52.354;20.886;2024-03-23T05:30:29;61.72;;;24.42;;
18206;SDS011;9229;52.354;20.886;2024-03-23T05:35:31;50.28;;;24.08;;
18206;SDS011;9229;52.354;20.886;2024-03-23T05:40:35;65.03;;;26.63;;
18206;SDS011;9229;52.354;20.886;2024-03-23T05:45:40;59.97;;;25.25;;
18206;SDS011;9229;52.354;20.886;2024-03-23T05:50:42;68.18;;;26.80;;
18206;SDS011;9229;52.354;20.886;2024-03-23T05:55:45;75.38;;;28.08;;
18206;SDS011;9229;52.354;20.886;2024-03-23T06:00:47;68.43;;;26.50;;
18206;SDS011;9229;52.354;20.886;2024-03-23T06:05:50;64.80;;;26.25;;
18206;SDS011;9229;52.354;20.886;2024-03-23T06:10:54;71.38;;;27.70;;
18206;SDS011;9229;52.354;20.886;2024-03-23T06:15:56;68.00;;;27.85;;
18206;SDS011;9229;52.354;20.886;2024-03-23T06:20:58;77.50;;;28.35;;
18206;SDS011;9229;52.354;20.886;2024-03-23T06:26:02;67.53;;;28.45;;
18206;SDS011;9229;52.354;20.886;2024-03-23T06:31:06;79.43;;;29.27;;
18206;SDS011;9229;52.354;20.886;2024-03-23T06:36:11;77.45;;;27.55;;
18206;SDS011;9229;52.354;20.886;2024-03-23T06:41:14;72.47;;;28.80;;
18206;SDS011;9229;52.354;20.886;2024-03-23T06:46:17;79.35;;;29.40;;
18206;SDS011;9229;52.354;20.886;2024-03-23T06:51:19;82.47;;;29.65;;
18206;SDS011;9229;52.354;20.886;2024-03-23T06:56:22;80.85;;;30.23;;
18206;SDS011;9229;52.354;20.886;2024-03-23T07:01:24;81.97;;;29.80;;
18206;SDS011;9229;52.354;20.886;2024-03-23T07:06:26;85.78;;;30.20;;
18206;SDS011;9229;52.354;20.886;2024-03-23T07:11:30;72.95;;;30.42;;
18206;SDS011;9229;52.354;20.886;2024-03-23T07:16:32;69.63;;;28.85;;
18206;SDS011;9229;52.354;20.886;2024-03-23T07:21:34;67.75;;;27.27;;
18206;SDS011;9229;52.354;20.886;2024-03-23T07:26:37;67.55;;;26.40;;
18206;SDS011;9229;52.354;20.886;2024-03-23T07:31:39;56.35;;;25.52;;
18206;SDS011;9229;52.354;20.886;2024-03-23T07:36:41;63.75;;;27.42;;
18206;SDS011;9229;52.354;20.886;2024-03-23T07:41:45;67.95;;;26.45;;
18206;SDS011;9229;52.354;20.886;2024-03-23T07:46:47;70.53;;;25.92;;
18206;SDS011;9229;52.354;20.886;2024-03-23T07:51:49;64.55;;;27.30;;
18206;SDS011;9229;52.354;20.886;2024-03-23T07:56:52;56.35;;;25.00;;
18206;SDS011;9229;52.354;20.886;2024-03-23T08:01:54;53.47;;;24.25;;
18206;SDS011;9229;52.354;20.886;2024-03-23T08:07:00;59.70;;;24.40;;
18206;SDS011;9229;52.354;20.886;2024-03-23T08:12:04;54.05;;;23.65;;
18206;SDS011;9229;52.354;20.886;2024-03-23T08:17:07;52.78;;;21.05;;
18206;SDS011;9229;52.354;20.886;2024-03-23T08:22:09;55.80;;;22.33;;
18206;SDS011;9229;52.354;20.886;2024-03-23T08:27:12;53.58;;;22.95;;
18206;SDS011;9229;52.354;20.886;2024-03-23T08:32:14;56.67;;;22.45;;
18206;SDS011;9229;52.354;20.886;2024-03-23T08:37:17;54.25;;;22.92;;
18206;SDS011;9229;52.354;20.886;2024-03-23T08:42:20;61.13;;;24.05;;
18206;SDS011;9229;52.354;20.886;2024-03-23T08:47:22;50.05;;;23.38;;
18206;SDS011;9229;52.354;20.886;2024-03-23T08:52:24;45.08;;;19.98;;
18206;SDS011;9229;52.354;20.886;2024-03-23T08:57:30;42.65;;;19.38;;
18206;SDS011;9229;52.354;20.886;2024-03-23T09:02:32;34.05;;;16.73;;
18206;SDS011;9229;52.354;20.886;2024-03-23T09:07:34;29.58;;;16.63;;
18206;SDS011;9229;52.354;20.886;2024-03-23T09:12:38;34.67;;;17.00;;
18206;SDS011;9229;52.354;20.886;2024-03-23T09:17:40;27.58;;;15.15;;
18206;SDS011;9229;52.354;20.886;2024-03-23T09:22:42;32.60;;;15.98;;
18206;SDS011;9229;52.354;20.886;2024-03-23T09:27:46;29.40;;;15.35;;
18206;SDS011;9229;52.354;20.886;2024-03-23T09:32:48;27.10;;;14.13;;
18206;SDS011;9229;52.354;20.886;2024-03-23T09:37:50;27.05;;;14.23;;
18206;SDS011;9229;52.354;20.886;2024-03-23T09:42:53;23.63;;;14.32;;
18206;SDS011;9229;52.354;20.886;2024-03-23T09:47:56;29.45;;;14.82;;
18206;SDS011;9229;52.354;20.886;2024-03-23T09:52:58;26.15;;;13.57;;
18206;SDS011;9229;52.354;20.886;2024-03-23T09:58:03;25.88;;;14.57;;
18206;SDS011;9229;52.354;20.886;2024-03-23T10:03:06;25.23;;;14.13;;
18206;SDS011;9229;52.354;20.886;2024-03-23T10:08:16;22.63;;;12.88;;
18206;SDS011;9229;52.354;20.886;2024-03-23T10:13:28;23.63;;;12.98;;
18206;SDS011;9229;52.354;20.886;2024-03-23T10:18:31;21.50;;;12.02;;
18206;SDS011;9229;52.354;20.886;2024-03-23T10:23:39;17.17;;;10.48;;
18206;SDS011;9229;52.354;20.886;2024-03-23T10:28:53;15.18;;;10.50;;
18206;SDS011;9229;52.354;20.886;2024-03-23T10:33:58;15.65;;;10.05;;
18206;SDS011;9229;52.354;20.886;2024-03-23T10:39:01;15.48;;;10.20;;
18206;SDS011;9229;52.354;20.886;2024-03-23T10:44:05;14.85;;;9.15;;
18206;SDS011;9229;52.354;20.886;2024-03-23T10:49:07;15.68;;;9.93;;
18206;SDS011;9229;52.354;20.886;2024-03-23T10:54:09;15.50;;;9.27;;
18206;SDS011;9229;52.354;20.886;2024-03-23T10:59:14;13.73;;;8.82;;
18206;SDS011;9229;52.354;20.886;2024-03-23T11:04:28;11.20;;;7.70;;
18206;SDS011;9229;52.354;20.886;2024-03-23T11:09:41;15.15;;;8.30;;
18206;SDS011;9229;52.354;20.886;2024-03-23T11:14:46;16.25;;;9.27;;
18206;SDS011;9229;52.354;20.886;2024-03-23T11:19:53;16.23;;;7.72;;
18206;SDS011;9229;52.354;20.886;2024-03-23T11:24:58;11.80;;;7.10;;
18206;SDS011;9229;52.354;20.886;2024-03-23T11:30:10;11.60;;;6.45;;
18206;SDS011;9229;52.354;20.886;2024-03-23T11:35:26;10.27;;;7.03;;
18206;SDS011;9229;52.354;20.886;2024-03-23T11:40:29;13.27;;;7.53;;
18206;SDS011;9229;52.354;20.886;2024-03-23T12:38:35;8.82;;;6.03;;
18206;SDS011;9229;52.354;20.886;2024-03-23T14:04:39;14.10;;;8.63;;
18206;SDS011;9229;52.354;20.886;2024-03-23T14:09:41;12.98;;;7.97;;
18206;SDS011;9229;52.354;20.886;2024-03-23T14:14:58;14.27;;;8.82;;
18206;SDS011;9229;52.354;20.886;2024-03-23T14:20:06;16.08;;;10.48;;
18206;SDS011;9229;52.354;20.886;2024-03-23T14:25:31;22.10;;;11.48;;
18206;SDS011;9229;52.354;20.886;2024-03-23T14:30:35;19.90;;;12.55;;
18206;SDS011;9229;52.354;20.886;2024-03-23T14:35:41;20.10;;;11.93;;
18206;SDS011;9229;52.354;20.886;2024-03-23T14:40:53;17.90;;;11.07;;
18206;SDS011;9229;52.354;20.886;2024-03-23T14:46:08;20.63;;;11.48;;
18206;SDS011;9229;52.354;20.886;2024-03-23T14:51:16;18.67;;;11.02;;
18206;SDS011;9229;52.354;20.886;2024-03-23T14:56:18;17.75;;;11.88;;
18206;SDS011;9229;52.354;20.886;2024-03-23T15:01:23;20.85;;;13.43;;
18206;SDS011;9229;52.354;20.886;2024-03-23T15:06:30;25.45;;;13.77;;
18206;SDS011;9229;52.354;20.886;2024-03-23T15:11:35;22.05;;;12.80;;
18206;SDS011;9229;52.354;20.886;2024-03-23T15:16:37;18.63;;;12.63;;
18206;SDS011;9229;52.354;20.886;2024-03-23T15:21:41;22.48;;;12.02;;
18206;SDS011;9229;52.354;20.886;2024-03-23T15:26:44;18.83;;;11.82;;
18206;SDS011;9229;52.354;20.886;2024-03-23T15:31:46;23.50;;;14.80;;
18206;SDS011;9229;52.354;20.886;2024-03-23T15:36:53;24.95;;;14.18;;
18206;SDS011;9229;52.354;20.886;2024-03-23T15:41:55;23.58;;;13.75;;
18206;SDS011;9229;52.354;20.886;2024-03-23T15:46:58;23.95;;;14.10;;
18206;SDS011;9229;52.354;20.886;2024-03-23T15:52:02;25.80;;;14.45;;
18206;SDS011;9229;52.354;20.886;2024-03-23T15:57:04;23.05;;;13.20;;
18206;SDS011;9229;52.354;20.886;2024-03-23T16:02:07;19.40;;;12.93;;
18206;SDS011;9229;52.354;20.886;2024-03-23T16:07:24;21.83;;;12.52;;
18206;SDS011;9229;52.354;20.886;2024-03-23T16:12:41;19.67;;;12.95;;
18206;SDS011;9229;52.354;20.886;2024-03-23T16:17:43;25.75;;;14.40;;
18206;SDS011;9229;52.354;20.886;2024-03-23T16:22:47;18.88;;;12.23;;
18206;SDS011;9229;52.354;20.886;2024-03-23T16:27:49;20.42;;;13.25;;
18206;SDS011;9229;52.354;20.886;2024-03-23T16:32:51;19.92;;;13.45;;
18206;SDS011;9229;52.354;20.886;2024-03-23T16:37:54;19.60;;;12.48;;
18206;SDS011;9229;52.354;20.886;2024-03-23T16:42:56;21.60;;;13.57;;
18206;SDS011;9229;52.354;20.886;2024-03-23T16:47:58;26.08;;;13.88;;
18206;SDS011;9229;52.354;20.886;2024-03-23T16:53:03;22.85;;;13.75;;
18206;SDS011;9229;52.354;20.886;2024-03-23T16:58:05;23.23;;;13.82;;
18206;SDS011;9229;52.354;20.886;2024-03-23T17:03:08;27.20;;;15.00;;
18206;SDS011;9229;52.354;20.886;2024-03-23T17:08:11;27.63;;;13.75;;
18206;SDS011;9229;52.354;20.886;2024-03-23T17:13:14;24.55;;;13.52;;
18206;SDS011;9229;52.354;20.886;2024-03-23T17:18:16;22.92;;;13.75;;
18206;SDS011;9229;52.354;20.886;2024-03-23T17:23:23;25.85;;;13.68;;
18206;SDS011;9229;52.354;20.886;2024-03-23T17:28:28;19.63;;;13.05;;
18206;SDS011;9229;52.354;20.886;2024-03-23T17:33:30;19.05;;;12.20;;
18206;SDS011;9229;52.354;20.886;2024-03-23T17:38:34;24.30;;;12.68;;
18206;SDS011;9229;52.354;20.886;2024-03-23T17:43:36;20.88;;;13.10;;
18206;SDS011;9229;52.354;20.886;2024-03-23T17:51:02;24.45;;;15.02;;
18206;SDS011;9229;52.354;20.886;2024-03-23T17:56:05;25.50;;;15.93;;
18206;SDS011;9229;52.354;20.886;2024-03-23T18:01:08;24.95;;;16.27;;
18206;SDS011;9229;52.354;20.886;2024-03-23T18:06:14;25.77;;;15.40;;
18206;SDS011;9229;52.354;20.886;2024-03-23T18:11:16;22.98;;;14.57;;
18206;SDS011;9229;52.354;20.886;2024-03-23T18:16:18;26.10;;;14.93;;
18206;SDS011;9229;52.354;20.886;2024-03-23T18:21:22;11.02;;;7.60;;
18206;SDS011;9229;52.354;20.886;2024-03-23T18:26:28;4.40;;;4.10;;
18206;SDS011;9229;52.354;20.886;2024-03-23T18:31:30;4.32;;;4.03;;
18206;SDS011;9229;52.354;20.886;2024-03-23T18:36:34;4.50;;;4.10;;
18206;SDS011;9229;52.354;20.886;2024-03-23T18:41:36;4.47;;;4.07;;
18206;SDS011;9229;52.354;20.886;2024-03-23T18:46:38;3.60;;;3.40;;
18206;SDS011;9229;52.354;20.886;2024-03-23T18:51:41;3.92;;;3.28;;
18206;SDS011;9229;52.354;20.886;2024-03-23T18:56:45;3.17;;;2.65;;
18206;SDS011;9229;52.354;20.886;2024-03-23T19:01:47;6.40;;;2.30;;
18206;SDS011;9229;52.354;20.886;2024-03-23T19:06:50;2.42;;;2.25;;
18206;SDS011;9229;52.354;20.886;2024-03-23T19:12:06;2.33;;;1.77;;
18206;SDS011;9229;52.354;20.886;2024-03-23T19:17:09;1.83;;;1.77;;
18206;SDS011;9229;52.354;20.886;2024-03-23T19:22:15;2.35;;;2.20;;
18206;SDS011;9229;52.354;20.886;2024-03-23T19:27:18;5.00;;;3.40;;
18206;SDS011;9229;52.354;20.886;2024-03-23T19:32:20;2.60;;;2.50;;
18206;SDS011;9229;52.354;20.886;2024-03-23T19:37:26;3.63;;;3.33;;
18206;SDS011;9229;52.354;20.886;2024-03-23T19:42:29;2.60;;;2.50;;
18206;SDS011;9229;52.354;20.886;2024-03-23T19:47:31;3.10;;;2.90;;
18206;SDS011;9229;52.354;20.886;2024-03-23T19:52:35;3.10;;;2.90;;
18206;SDS011;9229;52.354;20.886;2024-03-23T19:57:37;3.17;;;2.80;;
18206;SDS011;9229;52.354;20.886;2024-03-23T20:02:39;5.07;;;2.85;;
18206;SDS011;9229;52.354;20.886;2024-03-23T20:07:44;3.30;;;3.10;;
18206;SDS011;9229;52.354;20.886;2024-03-23T20:12:46;3.00;;;2.80;;
18206;SDS011;9229;52.354;20.886;2024-03-23T20:17:49;3.55;;;3.25;;
18206;SDS011;9229;52.354;20.886;2024-03-23T20:22:55;3.33;;;3.03;;
18206;SDS011;9229;52.354;20.886;2024-03-23T20:28:00;3.95;;;3.75;;
18206;SDS011;9229;52.354;20.886;2024-03-23T20:33:03;3.97;;;3.67;;
18206;SDS011;9229;52.354;20.886;2024-03-23T20:38:08;6.90;;;4.25;;
18206;SDS011;9229;52.354;20.886;2024-03-23T20:43:10;4.25;;;3.85;;
18206;SDS011;9229;52.354;20.886;2024-03-23T20:48:12;5.68;;;4.20;;
18206;SDS011;9229;52.354;20.886;2024-03-23T20:53:16;4.68;;;4.22;;
18206;SDS011;9229;52.354;20.886;2024-03-23T20:58:17;4.30;;;4.00;;
18206;SDS011;9229;52.354;20.886;2024-03-23T21:03:23;5.22;;;3.72;;
18206;SDS011;9229;52.354;20.886;2024-03-23T21:08:35;3.85;;;3.65;;
18206;SDS011;9229;52.354;20.886;2024-03-23T21:13:38;6.45;;;3.72;;
18206;SDS011;9229;52.354;20.886;2024-03-23T21:18:44;7.35;;;3.78;;
18206;SDS011;9229;52.354;20.886;2024-03-23T21:23:47;3.90;;;3.60;;
18206;SDS011;9229;52.354;20.886;2024-03-23T21:28:57;4.15;;;3.75;;
18206;SDS011;9229;52.354;20.886;2024-03-23T21:33:59;6.15;;;4.43;;
18206;SDS011;9229;52.354;20.886;2024-03-23T21:39:03;4.38;;;3.97;;
18206;SDS011;9229;52.354;20.886;2024-03-23T21:44:14;8.63;;;4.97;;
18206;SDS011;9229;52.354;20.886;2024-03-23T21:49:16;9.55;;;5.20;;
18206;SDS011;9229;52.354;20.886;2024-03-23T21:54:20;6.35;;;5.35;;
18206;SDS011;9229;52.354;20.886;2024-03-23T21:59:22;6.60;;;5.13;;
18206;SDS011;9229;52.354;20.886;2024-03-23T22:04:25;6.05;;;5.45;;
18206;SDS011;9229;52.354;20.886;2024-03-23T22:09:33;9.25;;;5.88;;
18206;SDS011;9229;52.354;20.886;2024-03-23T22:14:37;6.93;;;5.13;;
18206;SDS011;9229;52.354;20.886;2024-03-23T22:19:42;6.03;;;5.47;;
18206;SDS011;9229;52.354;20.886;2024-03-23T22:24:46;6.68;;;4.93;;
18206;SDS011;9229;52.354;20.886;2024-03-23T22:29:52;5.72;;;4.88;;
18206;SDS011;9229;52.354;20.886;2024-03-23T22:35:01;9.43;;;4.28;;
18206;SDS011;9229;52.354;20.886;2024-03-23T22:45:35;11.85;;;4.05;;
18206;SDS011;9229;52.354;20.886;2024-03-23T22:50:42;7.90;;;5.47;;
18206;SDS011;9229;52.354;20.886;2024-03-23T22:55:47;10.07;;;5.07;;
18206;SDS011;9229;52.354;20.886;2024-03-23T23:00:50;10.15;;;4.78;;
18206;SDS011;9229;52.354;20.886;2024-03-23T23:05:58;10.57;;;5.28;;
18206;SDS011;9229;52.354;20.886;2024-03-23T23:11:23;12.60;;;5.20;;
18206;SDS011;9229;52.354;20.886;2024-03-23T23:16:25;8.60;;;5.78;;
18206;SDS011;9229;52.354;20.886;2024-03-23T23:21:27;9.60;;;5.95;;
18206;SDS011;9229;52.354;20.886;2024-03-23T23:26:31;11.35;;;5.80;;
18206;SDS011;9229;52.354;20.886;2024-03-23T23:31:33;13.02;;;5.90;;
18206;SDS011;9229;52.354;20.886;2024-03-23T23:36:35;11.20;;;6.53;;
18206;SDS011;9229;52.354;20.886;2024-03-23T23:46:59;9.40;;;7.82;;
18206;SDS011;9229;52.354;20.886;2024-03-23T23:52:14;22.67;;;11.77;;
18206;SDS011;9229;52.354;20.886;2024-03-23T23:57:22;16.65;;;10.73;;
